Accueil
METAR-TAF:

METAR-TAF

Aéroports :

Aéroport de Méchria

Méchria, Algérie

latitude: 34-56N, longitude: 000-26W, altitude: 1149 m

Observation

Le bulletin a été fait il y a 37 minutes, à 12:00 UTC
Vent 22 kt de nord-ouest
Température 8°C
Humidité 57%
Pression 1023 hPa
Visibilité: 1500 m
Quelques nuages à une hauteur de 2000 ft
Nuages épars à une hauteur de 2600 ft
Chasse-sable élevée

METAR: DAAY 141200Z 32022KT 1500 BLSA FEW020 SCT026 08/M00 Q1023

Heure: 13:37 (12:37 UTC)

Prévision

Le bulletin a été fait il y a 1 heure et 37 minutes, à 11:00 UTC
Prévision valable du 14 à 12 UTC au 14 à 21 UTC
Vent 26 kt de ouest/nord-ouest
Visibilité: 3000 m
Quelques nuages à une hauteur de 2000 ft
Nuages épars à une hauteur de 2600 ft
Chasse-sable basse

TAF: DAAY 141100Z 1412/1421 30026KT 3000 DRSA FEW020 SCT026

Observations et prévisions météorologiques de plus de 4000 aéroports (messages METAR et TAF).

Les stations disponibles sont représentées par des disques jaunes et rouges sur la carte.

Passer la souris dessus pour voir le nom de la station.

Cliquer dessus pour voir les observations et prévisions météorologiques.

Pour changer de carte: cliquez sur les boutons verts avec une croix noire pour zoomer, sur le bouton vert avec un tiret pour effectuer un zoom arrière, ou sur les flèches vertes pour les cartes adjacentes.


METAR-TAF: